Time;durP1;ratioP1;P1;durP2;ratioP2;P2;SDS_P1;SDS_P2;PMS_P1;PMS_P2;Temp;Humidity;BMP_temperature;BMP_pressure;BME280_temperature;BME280_humidity;BME280_pressure;Samples;Min_cycle;Max_cycle;Signal;HPM_P1;HPM_P2
2023/12/09 00:00:22;;;;;;;10.40;4.87;;;;;;;7.59;89.55;100873.34;5053521;28;20183;-74
2023/12/09 00:02:49;;;;;;;10.63;6.00;;;;;;;7.60;89.35;100875.88;5053607;28;20197;-74
2023/12/09 00:05:15;;;;;;;8.93;5.37;;;;;;;7.58;89.38;100877.00;5053748;28;20191;-74
2023/12/09 00:07:42;;;;;;;9.33;5.70;;;;;;;7.59;89.52;100881.34;5053733;28;20191;-74
2023/12/09 00:10:09;;;;;;;5.53;4.80;;;;;;;7.68;88.92;100878.72;5052984;28;20574;-74
2023/12/09 00:12:35;;;;;;;6.30;5.23;;;;;;;7.64;89.19;100879.97;5053622;28;20218;-74
2023/12/09 00:15:04;;;;;;;6.20;4.90;;;;;;;7.59;89.22;100878.69;5054006;28;20179;-72
2023/12/09 00:17:31;;;;;;;7.00;4.60;;;;;;;7.74;89.17;100872.06;5053063;28;20191;-72
2023/12/09 00:19:59;;;;;;;12.03;4.90;;;;;;;7.79;88.59;100875.19;5053140;28;20215;-72
2023/12/09 00:22:25;;;;;;;8.60;5.40;;;;;;;7.73;88.62;100873.03;5053352;28;20237;-72
2023/12/09 00:24:52;;;;;;;9.60;5.27;;;;;;;7.67;88.95;100877.06;5053409;28;20245;-72
2023/12/09 00:27:19;;;;;;;7.70;5.03;;;;;;;7.66;88.94;100871.84;5052948;28;20187;-72
2023/12/09 00:29:45;;;;;;;10.50;4.60;;;;;;;7.71;89.14;100869.66;5053111;28;20293;-72
2023/12/09 00:32:12;;;;;;;6.40;4.83;;;;;;;7.62;89.35;100875.75;5053253;28;20183;-74
2023/12/09 00:34:38;;;;;;;8.77;4.73;;;;;;;7.58;89.34;100872.50;5052943;28;20244;-74
2023/12/09 00:37:05;;;;;;;10.97;4.63;;;;;;;7.50;89.79;100872.31;5053439;28;20183;-74
2023/12/09 00:39:31;;;;;;;9.67;5.47;;;;;;;7.51;89.45;100866.00;5052789;28;20702;-74
2023/12/09 00:41:57;;;;;;;6.70;5.80;;;;;;;7.42;90.21;100863.28;5053833;28;20187;-72
2023/12/09 00:44:24;;;;;;;12.50;5.20;;;;;;;7.45;90.19;100876.31;5052788;28;20183;-72
2023/12/09 00:46:51;;;;;;;14.03;4.67;;;;;;;7.50;89.91;100874.13;5052928;28;20192;-72
2023/12/09 00:49:18;;;;;;;9.83;4.87;;;;;;;7.48;90.06;100881.38;5053176;28;20218;-71
2023/12/09 00:51:44;;;;;;;10.97;5.07;;;;;;;7.44;90.35;100867.50;5052879;28;20591;-71
2023/12/09 00:54:11;;;;;;;17.13;5.40;;;;;;;7.49;90.17;100872.44;5052727;28;20198;-71
2023/12/09 00:56:37;;;;;;;9.70;5.97;;;;;;;7.47;90.37;100875.22;5053251;28;20179;-71
2023/12/09 00:59:05;;;;;;;12.47;5.67;;;;;;;7.46;90.76;100864.72;5053180;28;20203;-71
2023/12/09 01:01:33;;;;;;;8.17;4.73;;;;;;;7.53;90.45;100872.06;5052613;28;20183;-71
2023/12/09 01:04:00;;;;;;;7.90;5.60;;;;;;;7.48;90.40;100863.59;5052617;28;20202;-71
2023/12/09 01:06:28;;;;;;;16.33;5.47;;;;;;;7.50;90.69;100874.13;5052897;28;20256;-71
2023/12/09 01:08:55;;;;;;;12.40;5.60;;;;;;;7.59;90.08;100868.88;5052824;28;20239;-71
2023/12/09 01:11:27;;;;;;;5.57;4.63;;;;;;;7.54;90.11;100879.06;5056277;28;20183;-71
2023/12/09 01:13:53;;;;;;;8.40;5.03;;;;;;;7.56;90.14;100871.78;5056669;28;20245;-71
2023/12/09 01:16:19;;;;;;;6.03;5.50;;;;;;;7.47;90.15;100871.72;5057092;28;20191;-74
2023/12/09 01:18:46;;;;;;;12.07;5.83;;;;;;;7.50;90.16;100880.28;5056171;28;20206;-73
2023/12/09 01:21:12;;;;;;;4.97;4.63;;;;;;;7.47;90.10;100874.38;5056935;28;20195;-73
2023/12/09 01:23:40;;;;;;;7.23;4.80;;;;;;;7.43;89.94;100872.94;5056619;28;20191;-73
2023/12/09 01:26:07;;;;;;;14.43;4.70;;;;;;;7.35;90.32;100871.75;5056481;28;20184;-73
2023/12/09 01:28:34;;;;;;;8.80;5.43;;;;;;;7.34;90.52;100880.72;5056016;28;20614;-73
2023/12/09 01:31:00;;;;;;;6.67;4.77;;;;;;;7.36;90.18;100888.56;5056108;28;20210;-73
2023/12/09 01:33:27;;;;;;;14.63;4.80;;;;;;;7.43;90.12;100879.09;5057050;28;20191;-71
2023/12/09 01:35:53;;;;;;;6.27;5.00;;;;;;;7.37;90.24;100878.78;5055918;28;20245;-71
2023/12/09 01:38:20;;;;;;;10.80;4.73;;;;;;;7.44;90.38;100877.28;5055890;28;20211;-71
2023/12/09 01:40:53;;;;;;;5.77;4.50;;;;;;;7.36;90.66;100883.25;5055805;28;20190;-71
2023/12/09 01:43:20;;;;;;;8.97;5.40;;;;;;;7.43;90.32;100879.09;5056034;28;20646;-71
2023/12/09 01:45:50;;;;;;;19.10;6.17;;;;;;;7.46;90.04;100873.53;5055779;28;20183;-71
2023/12/09 01:48:17;;;;;;;9.43;5.13;;;;;;;7.48;90.45;100870.72;5056196;28;20207;-73
2023/12/09 01:50:44;;;;;;;7.57;4.57;;;;;;;7.48;89.91;100863.59;5055542;28;20218;-73
2023/12/09 01:53:11;;;;;;;10.17;4.83;;;;;;;7.46;90.12;100862.91;5056236;28;20270;-73
2023/12/09 01:55:39;;;;;;;11.30;3.60;;;;;;;7.44;90.01;100870.16;5056291;28;20187;-74
2023/12/09 01:58:05;;;;;;;8.50;5.00;;;;;;;7.41;89.95;100875.75;5055415;28;20179;-74
2023/12/09 02:00:32;;;;;;;7.33;5.03;;;;;;;7.36;90.24;100877.94;5055692;28;20191;-74
2023/12/09 02:02:59;;;;;;;7.43;4.10;;;;;;;7.36;90.14;100883.25;5055389;28;20210;-74
2023/12/09 02:05:26;;;;;;;8.13;3.90;;;;;;;7.41;89.95;100877.53;5056013;28;20237;-74
2023/12/09 02:07:53;;;;;;;10.13;4.50;;;;;;;7.38;90.22;100868.03;5055233;28;20183;-73
2023/12/09 02:10:19;;;;;;;7.73;4.33;;;;;;;7.42;90.28;100873.94;5055374;28;20698;-71
2023/12/09 02:12:48;;;;;;;5.10;4.67;;;;;;;7.40;89.80;100865.22;5055664;28;20187;-71
2023/12/09 02:15:25;;;;;;;10.43;4.53;;;;;;;7.38;90.04;100867.19;5055191;28;20196;-71
2023/12/09 02:18:03;;;;;;;6.80;4.47;;;;;;;7.34;89.99;100870.06;5055997;28;20222;-71
2023/12/09 02:20:30;;;;;;;8.73;4.83;;;;;;;7.32;90.45;100866.72;5054896;28;20172;-71
2023/12/09 02:23:12;;;;;;;9.10;5.23;;;;;;;7.29;90.14;100852.81;5055177;28;20184;-71
2023/12/09 02:25:39;;;;;;;10.93;4.10;;;;;;;7.34;89.87;100847.97;5055231;28;20248;-71
2023/12/09 02:28:25;;;;;;;8.77;4.47;;;;;;;7.28;89.96;100851.97;5054810;28;20193;-71
2023/12/09 02:31:09;;;;;;;7.17;3.93;;;;;;;7.23;89.80;100843.53;5055471;28;20204;-71
2023/12/09 02:33:37;;;;;;;13.27;5.27;;;;;;;7.19;89.95;100834.13;5055135;28;20663;-71
2023/12/09 02:36:05;;;;;;;15.37;4.70;;;;;;;7.15;90.05;100830.03;5055315;28;20191;-72
2023/12/09 02:38:34;;;;;;;4.17;3.90;;;;;;;7.09;90.01;100827.88;5054631;28;20215;-72
2023/12/09 02:41:01;;;;;;;8.43;4.77;;;;;;;7.09;89.94;100833.19;5054728;28;20180;-72
2023/12/09 02:43:28;;;;;;;5.63;3.90;;;;;;;7.12;89.92;100829.44;5054702;28;20197;-72
2023/12/09 02:45:54;;;;;;;15.33;4.27;;;;;;;7.06;89.92;100825.47;5054621;28;20191;-72
2023/12/09 02:48:22;;;;;;;11.63;5.03;;;;;;;7.02;90.06;100818.72;5054758;28;20253;-72
2023/12/09 02:50:49;;;;;;;6.10;3.60;;;;;;;7.09;89.99;100811.91;5054363;28;20215;-72
2023/12/09 02:53:16;;;;;;;8.20;4.10;;;;;;;7.02;89.80;100810.75;5054858;28;20187;-73
2023/12/09 02:55:42;;;;;;;15.63;4.67;;;;;;;6.97;90.23;100807.63;5054947;28;20187;-73
2023/12/09 02:58:09;;;;;;;12.63;4.37;;;;;;;6.98;90.38;100804.00;5054293;28;20218;-73
2023/12/09 03:00:35;;;;;;;9.33;4.10;;;;;;;6.92;90.38;100801.84;5054849;28;20187;-73
2023/12/09 03:03:02;;;;;;;11.77;4.57;;;;;;;6.99;90.04;100808.34;5054532;28;20183;-73
2023/12/09 03:05:28;;;;;;;11.20;4.10;;;;;;;6.92;90.08;100809.00;5054373;28;20183;-73
2023/12/09 03:07:55;;;;;;;10.87;4.17;;;;;;;6.89;90.44;100799.44;5054128;28;20206;-73
2023/12/09 03:10:21;;;;;;;7.70;4.13;;;;;;;6.89;90.26;100799.44;5054645;28;20677;-74
2023/12/09 03:12:48;;;;;;;10.30;4.23;;;;;;;6.87;90.30;100809.38;5054093;28;20249;-74
2023/12/09 03:15:14;;;;;;;9.00;4.33;;;;;;;6.84;90.13;100799.81;5054429;28;20183;-74
2023/12/09 03:17:42;;;;;;;8.83;4.13;;;;;;;6.79;90.60;100798.50;5053957;28;20284;-74
2023/12/09 03:20:09;;;;;;;10.10;4.00;;;;;;;6.78;90.51;100789.72;5053860;28;20210;-74
2023/12/09 03:22:36;;;;;;;16.57;4.70;;;;;;;6.73;90.72;100781.28;5054150;28;20655;-74
2023/12/09 03:25:03;;;;;;;16.57;4.47;;;;;;;6.82;90.41;100784.97;5054147;28;20191;-74
2023/12/09 03:27:29;;;;;;;10.57;4.73;;;;;;;6.80;90.54;100792.22;5054429;28;20267;-74
2023/12/09 03:29:56;;;;;;;10.53;4.60;;;;;;;6.80;90.61;100778.94;5053651;28;20215;-73
2023/12/09 03:32:22;;;;;;;6.33;3.47;;;;;;;6.78;90.47;100770.25;5053988;28;20689;-71
2023/12/09 03:34:49;;;;;;;13.63;4.67;;;;;;;6.81;90.60;100767.34;5053681;28;20618;-71
2023/12/09 03:37:15;;;;;;;17.60;5.17;;;;;;;6.81;90.67;100770.84;5054567;28;20661;-71
2023/12/09 03:39:42;;;;;;;8.50;4.90;;;;;;;6.81;90.55;100772.66;5054068;28;20203;-71
2023/12/09 03:42:08;;;;;;;5.47;4.40;;;;;;;6.76;90.51;100767.72;5054013;28;20316;-71
2023/12/09 03:44:35;;;;;;;14.87;5.50;;;;;;;6.77;90.39;100760.59;5053785;28;20187;-71
2023/12/09 03:47:01;;;;;;;25.33;5.77;;;;;;;6.73;90.68;100761.81;5053941;28;20186;-71
2023/12/09 03:49:36;;;;;;;10.50;5.10;;;;;;;6.69;90.32;100755.94;5053886;28;20221;-73
2023/12/09 03:52:03;;;;;;;11.87;5.30;;;;;;;6.69;90.75;100763.91;5053386;28;20558;-74
2023/12/09 03:54:30;;;;;;;13.67;5.13;;;;;;;6.68;90.28;100762.19;5053854;28;20187;-74
2023/12/09 03:56:56;;;;;;;15.10;4.80;;;;;;;6.65;90.57;100757.16;5053364;28;20194;-74
2023/12/09 03:59:23;;;;;;;13.67;4.97;;;;;;;6.67;90.15;100763.16;5053512;28;20215;-73
2023/12/09 04:01:50;;;;;;;4.97;4.63;;;;;;;6.66;90.07;100772.09;5053570;28;20583;-73
2023/12/09 04:04:16;;;;;;;14.03;5.13;;;;;;;6.59;90.38;100775.38;5053605;28;20585;-72
2023/12/09 04:06:43;;;;;;;11.97;4.53;;;;;;;6.53;90.68;100766.13;5053642;28;20175;-72
2023/12/09 04:09:10;;;;;;;9.13;4.10;;;;;;;6.56;90.54;100776.50;5053242;28;20222;-71
2023/12/09 04:11:37;;;;;;;8.40;4.40;;;;;;;6.51;90.54;100776.00;5053654;28;20667;-72
2023/12/09 04:14:06;;;;;;;8.57;4.70;;;;;;;6.57;90.84;100785.31;5053117;28;20189;-71
2023/12/09 04:16:32;;;;;;;6.37;4.33;;;;;;;6.52;90.91;100787.47;5053774;28;20187;-72
2023/12/09 04:18:59;;;;;;;10.87;5.13;;;;;;;6.51;90.88;100777.81;5053295;28;20213;-72
2023/12/09 04:21:26;;;;;;;13.63;4.60;;;;;;;6.48;90.72;100768.31;5053567;28;20191;-72
2023/12/09 04:23:52;;;;;;;7.73;4.67;;;;;;;6.45;91.14;100765.88;5053245;28;20606;-72
2023/12/09 04:26:19;;;;;;;10.27;4.53;;;;;;;6.50;91.05;100776.97;5052999;28;20190;-72
2023/12/09 04:28:46;;;;;;;9.50;4.43;;;;;;;6.47;91.08;100769.25;5052888;28;20215;-72
2023/12/09 04:31:13;;;;;;;10.17;4.37;;;;;;;6.55;91.00;100784.56;5053429;28;20203;-71
2023/12/09 04:33:40;;;;;;;9.40;4.03;;;;;;;6.52;90.87;100776.84;5052931;28;20187;-71
2023/12/09 04:36:07;;;;;;;8.63;4.37;;;;;;;6.51;90.57;100778.66;5053409;28;20192;-71
2023/12/09 04:38:34;;;;;;;8.93;4.07;;;;;;;6.60;90.60;100774.41;5052940;28;20222;-71
2023/12/09 04:41:01;;;;;;;13.43;4.43;;;;;;;6.59;90.87;100770.06;5053439;28;20188;-71
2023/12/09 04:43:28;;;;;;;10.80;4.70;;;;;;;6.56;90.88;100760.56;5052839;28;20241;-71
2023/12/09 04:45:54;;;;;;;10.50;4.37;;;;;;;6.61;90.53;100762.84;5056255;28;20241;-71
2023/12/09 04:48:20;;;;;;;6.90;3.63;;;;;;;6.56;90.32;100760.56;5057074;28;20207;-71
2023/12/09 04:50:48;;;;;;;8.27;3.77;;;;;;;6.54;90.33;100753.66;5057274;28;20701;-71
2023/12/09 04:53:14;;;;;;;11.47;4.33;;;;;;;6.56;90.62;100751.75;5056991;28;20278;-71
2023/12/09 04:55:41;;;;;;;7.27;4.07;;;;;;;6.62;90.13;100743.28;5057186;28;20183;-70
2023/12/09 04:58:07;;;;;;;11.23;4.27;;;;;;;6.56;90.29;100735.81;5057104;28;20198;-70
2023/12/09 05:00:34;;;;;;;7.90;4.10;;;;;;;6.55;90.21;100728.78;5056652;28;20236;-70
2023/12/09 05:03:00;;;;;;;14.70;4.50;;;;;;;6.59;90.23;100733.72;5056557;28;20561;-70
2023/12/09 05:05:27;;;;;;;10.67;5.23;;;;;;;6.55;89.96;100731.44;5056773;28;20666;-70
2023/12/09 05:07:53;;;;;;;15.43;4.53;;;;;;;6.58;90.21;100739.16;5056416;28;20218;-70
2023/12/09 05:10:21;;;;;;;14.00;4.37;;;;;;;6.55;90.15;100731.44;5057045;28;20674;-70
2023/12/09 05:12:48;;;;;;;12.70;4.27;;;;;;;6.54;90.11;100732.41;5056661;28;20651;-70
2023/12/09 05:15:14;;;;;;;11.90;4.40;;;;;;;6.53;90.04;100728.09;5056382;28;20210;-70
2023/12/09 05:17:41;;;;;;;14.07;4.33;;;;;;;6.66;90.00;100740.22;5056573;28;20195;-70
2023/12/09 05:20:09;;;;;;;8.47;4.93;;;;;;;6.54;89.72;100738.56;5056447;28;20214;-70
2023/12/09 05:22:36;;;;;;;14.23;5.00;;;;;;;6.56;89.66;100741.13;5056239;28;20187;-70
2023/12/09 05:25:04;;;;;;;6.10;4.17;;;;;;;6.57;89.48;100735.69;5056143;28;20606;-70
2023/12/09 05:27:30;;;;;;;7.80;4.87;;;;;;;6.57;89.37;100726.88;5056078;28;20199;-70
2023/12/09 05:29:57;;;;;;;10.47;3.80;;;;;;;6.55;89.65;100726.13;5055902;28;20207;-71
2023/12/09 05:32:23;;;;;;;9.37;4.27;;;;;;;6.51;90.14;100712.28;5056283;28;20573;-71
2023/12/09 05:34:50;;;;;;;6.33;5.33;;;;;;;6.54;89.91;100708.50;5055939;28;20202;-71
2023/12/09 05:37:16;;;;;;;14.00;4.53;;;;;;;6.52;89.51;100710.47;5056438;28;20278;-71
2023/12/09 05:39:42;;;;;;;9.47;5.13;;;;;;;6.61;89.40;100710.56;5055796;28;20214;-71
2023/12/09 05:42:09;;;;;;;4.40;4.10;;;;;;;6.58;89.63;100710.78;5055814;28;20191;-70
2023/12/09 05:44:35;;;;;;;6.30;5.03;;;;;;;6.57;89.68;100710.94;5055798;28;20214;-70
2023/12/09 05:47:02;;;;;;;13.43;4.90;;;;;;;6.53;89.47;100705.03;5055745;28;20188;-70
2023/12/09 05:49:29;;;;;;;4.13;3.83;;;;;;;6.54;89.12;100708.50;5055650;28;20582;-70
2023/12/09 05:51:55;;;;;;;5.63;3.73;;;;;;;6.57;89.34;100708.28;5055587;28;20207;-70
2023/12/09 05:54:22;;;;;;;5.50;4.10;;;;;;;6.48;89.32;100709.03;5055592;28;20179;-70
2023/12/09 05:56:49;;;;;;;9.30;3.10;;;;;;;6.50;89.64;100699.97;5055239;28;20187;-70
2023/12/09 05:59:15;;;;;;;6.57;3.37;;;;;;;6.42;89.27;100707.72;5055641;28;20242;-70
2023/12/09 06:01:42;;;;;;;13.33;4.07;;;;;;;6.39;89.68;100711.47;5055467;28;20183;-70
2023/12/09 06:04:08;;;;;;;3.60;3.40;;;;;;;6.41;89.32;100701.56;5055432;28;20183;-70
2023/12/09 06:06:35;;;;;;;5.97;4.03;;;;;;;6.37;89.65;100700.13;5055649;28;20244;-70
2023/12/09 06:09:02;;;;;;;4.47;4.20;;;;;;;6.33;89.67;100698.69;5055541;28;20211;-70
2023/12/09 06:11:28;;;;;;;7.47;3.73;;;;;;;6.29;90.18;100694.59;5055496;28;20213;-70
2023/12/09 06:13:55;;;;;;;4.33;3.90;;;;;;;6.32;89.67;100690.88;5055509;28;20547;-70
2023/12/09 06:16:21;;;;;;;5.00;3.27;;;;;;;6.34;89.56;100683.59;5055040;28;20192;-70
2023/12/09 06:18:48;;;;;;;4.33;3.10;;;;;;;6.25;89.53;100671.91;5055660;28;20215;-70
2023/12/09 06:21:22;;;;;;;4.37;4.07;;;;;;;6.19;90.10;100666.28;5055097;28;20248;-70
2023/12/09 06:23:49;;;;;;;9.70;3.47;;;;;;;6.16;89.92;100670.00;5055049;28;20233;-71
2023/12/09 06:26:16;;;;;;;8.63;3.70;;;;;;;6.11;89.88;100666.88;5055293;28;20659;-71
2023/12/09 06:28:43;;;;;;;4.63;3.43;;;;;;;6.04;90.24;100668.34;5054834;28;20211;-71
2023/12/09 06:31:10;;;;;;;3.40;3.17;;;;;;;6.04;89.86;100670.16;5054833;28;20211;-71
2023/12/09 06:33:37;;;;;;;4.63;3.60;;;;;;;6.04;90.28;100673.66;5054860;28;20332;-70
2023/12/09 06:36:05;;;;;;;3.90;3.57;;;;;;;6.05;90.66;100671.84;5054849;28;20187;-70
2023/12/09 06:38:34;;;;;;;4.00;3.30;;;;;;;6.05;90.44;100675.34;5054614;28;20207;-71
2023/12/09 06:41:00;;;;;;;8.53;3.50;;;;;;;6.08;90.15;100667.16;5054991;28;20592;-71
2023/12/09 06:43:27;;;;;;;3.87;3.33;;;;;;;6.10;90.71;100659.91;5054936;28;20183;-71
2023/12/09 06:45:53;;;;;;;6.50;3.57;;;;;;;6.07;90.35;100657.50;5054635;28;20191;-71
2023/12/09 06:48:20;;;;;;;7.10;3.23;;;;;;;6.04;90.00;100664.84;5054496;28;20223;-71
2023/12/09 06:50:47;;;;;;;4.33;3.13;;;;;;;6.08;90.48;100647.72;5054717;28;20213;-71
2023/12/09 06:53:13;;;;;;;9.53;2.97;;;;;;;6.07;90.17;100651.38;5054492;28;20191;-71
2023/12/09 06:55:40;;;;;;;3.87;3.00;;;;;;;6.04;90.09;100649.78;5054700;28;20187;-71
2023/12/09 06:58:07;;;;;;;6.83;4.07;;;;;;;5.99;90.05;100649.31;5054325;28;20198;-71
2023/12/09 07:00:33;;;;;;;8.77;3.43;;;;;;;5.90;90.14;100645.59;5054642;28;20180;-71
2023/12/09 07:03:00;;;;;;;7.60;4.37;;;;;;;5.92;90.21;100646.31;5054644;28;20260;-71
2023/12/09 07:05:27;;;;;;;8.40;3.90;;;;;;;5.96;90.85;100639.78;5054245;28;20187;-71
2023/12/09 07:07:53;;;;;;;3.90;3.60;;;;;;;5.96;90.76;100644.25;5053494;28;20274;-71
2023/12/09 07:10:20;;;;;;;3.97;2.93;;;;;;;6.03;91.27;100641.94;5054069;28;20195;-71
2023/12/09 07:12:46;;;;;;;5.83;3.90;;;;;;;6.05;91.14;100632.91;5054340;28;20198;-71
2023/12/09 07:15:13;;;;;;;3.77;3.53;;;;;;;6.01;91.18;100626.16;5054053;28;20187;-71
2023/12/09 07:17:39;;;;;;;9.47;4.03;;;;;;;6.02;90.84;100625.19;5053898;28;20191;-71
2023/12/09 07:20:06;;;;;;;4.17;3.93;;;;;;;6.04;91.22;100615.28;5053816;28;20204;-71
2023/12/09 07:22:33;;;;;;;3.67;3.47;;;;;;;6.06;90.87;100616.03;5054342;28;20175;-70
2023/12/09 07:24:59;;;;;;;3.50;3.20;;;;;;;6.03;90.87;100616.25;5054068;28;20705;-70
2023/12/09 07:27:26;;;;;;;4.07;3.70;;;;;;;6.02;91.48;100609.28;5053780;28;20183;-70
2023/12/09 07:29:53;;;;;;;4.07;3.70;;;;;;;6.03;91.38;100605.63;5053632;28;20206;-71
2023/12/09 07:32:19;;;;;;;3.77;3.47;;;;;;;6.00;91.90;100597.09;5054098;28;20203;-71
2023/12/09 07:34:46;;;;;;;3.53;3.33;;;;;;;6.03;91.97;100596.81;5053930;28;20182;-71
2023/12/09 07:37:14;;;;;;;8.50;3.87;;;;;;;6.09;91.61;100593.69;5053564;28;20682;-71
2023/12/09 07:39:41;;;;;;;3.87;3.53;;;;;;;6.14;91.90;100586.19;5053463;28;20276;-71
2023/12/09 07:42:07;;;;;;;7.43;4.60;;;;;;;6.17;91.26;100573.50;5053504;28;20175;-71
2023/12/09 07:44:34;;;;;;;5.10;4.70;;;;;;;6.18;91.31;100567.22;5053454;28;20214;-71
2023/12/09 07:47:01;;;;;;;4.13;3.80;;;;;;;6.21;91.29;100568.78;5053437;28;20194;-71
2023/12/09 07:49:27;;;;;;;5.63;3.10;;;;;;;6.26;91.19;100566.59;5053338;28;20285;-71
2023/12/09 07:51:54;;;;;;;4.93;3.20;;;;;;;6.24;90.93;100552.59;5053564;28;20294;-71
2023/12/09 07:54:21;;;;;;;4.33;3.23;;;;;;;6.30;91.03;100550.28;5053715;28;20199;-71
2023/12/09 07:56:47;;;;;;;3.53;2.60;;;;;;;6.42;90.64;100543.09;5053298;28;20272;-71
2023/12/09 07:59:14;;;;;;;3.77;3.27;;;;;;;6.42;90.52;100543.09;5053477;28;20256;-71
2023/12/09 08:01:40;;;;;;;7.80;5.40;;;;;;;6.40;90.16;100537.91;5053744;28;20190;-71
2023/12/09 08:04:07;;;;;;;5.10;2.93;;;;;;;6.57;89.76;100540.97;5053246;28;20237;-71
2023/12/09 08:06:33;;;;;;;6.60;2.90;;;;;;;6.59;89.52;100544.31;5053727;28;20225;-71
2023/12/09 08:09:00;;;;;;;4.03;2.83;;;;;;;6.59;89.19;100537.19;5053210;28;20298;-71
2023/12/09 08:11:26;;;;;;;6.20;2.77;;;;;;;6.61;89.27;100534.41;5053089;28;20620;-71
2023/12/09 08:13:53;;;;;;;4.70;2.73;;;;;;;6.72;88.80;100532.50;5053178;28;20183;-71
2023/12/09 08:16:20;;;;;;;3.90;2.77;;;;;;;6.73;88.50;100520.91;5053017;28;20605;-71
2023/12/09 08:18:47;;;;;;;5.90;2.67;;;;;;;6.75;88.71;100521.59;5052805;28;20211;-71
2023/12/09 08:21:14;;;;;;;7.60;3.50;;;;;;;6.80;87.98;100508.78;5053604;28;20175;-71
2023/12/09 08:23:41;;;;;;;3.07;2.83;;;;;;;6.86;87.70;100507.41;5053271;28;20187;-71
2023/12/09 08:26:07;;;;;;;4.47;2.80;;;;;;;6.98;86.88;100498.38;5053490;28;20186;-71
2023/12/09 08:28:34;;;;;;;4.20;2.73;;;;;;;6.98;86.67;100494.88;5052921;28;20203;-71
2023/12/09 08:31:03;;;;;;;2.43;2.17;;;;;;;7.02;86.56;100491.81;5053110;28;20217;-71
2023/12/09 08:33:30;;;;;;;3.77;2.70;;;;;;;7.07;86.50;100494.06;5052906;28;20195;-71
2023/12/09 08:35:56;;;;;;;3.13;2.50;;;;;;;7.03;86.54;100488.19;5053143;28;20721;-71
2023/12/09 08:38:23;;;;;;;3.20;2.63;;;;;;;7.13;85.88;100498.84;5053053;28;20252;-71
2023/12/09 08:40:49;;;;;;;10.47;3.03;;;;;;;7.11;86.07;100496.31;5052905;28;20187;-71
2023/12/09 08:43:16;;;;;;;2.37;2.17;;;;;;;7.12;86.14;100498.00;5052938;28;20225;-71
2023/12/09 08:45:42;;;;;;;9.03;3.07;;;;;;;7.20;85.87;100490.19;5052852;28;20674;-71
2023/12/09 08:48:09;;;;;;;3.23;3.13;;;;;;;7.18;85.71;100500.09;5053039;28;20547;-71
2023/12/09 08:50:36;;;;;;;5.27;2.37;;;;;;;7.27;85.34;100499.28;5052766;28;20678;-71
2023/12/09 08:53:02;;;;;;;2.57;2.47;;;;;;;7.30;85.21;100493.69;5053249;28;20204;-71
2023/12/09 08:55:29;;;;;;;3.33;2.40;;;;;;;7.32;85.11;100494.41;5052782;28;20183;-71
2023/12/09 08:57:55;;;;;;;6.27;2.90;;;;;;;7.35;85.27;100490.63;5052586;28;20187;-71
2023/12/09 09:00:25;;;;;;;7.60;3.17;;;;;;;7.42;85.06;100480.31;5053189;28;20167;-71
2023/12/09 09:02:55;;;;;;;3.63;2.47;;;;;;;7.39;85.06;100501.81;5052681;28;20163;-71
2023/12/09 09:05:22;;;;;;;4.27;2.93;;;;;;;7.43;84.86;100493.44;5052896;28;20600;-71
2023/12/09 09:07:49;;;;;;;6.20;3.00;;;;;;;7.50;84.45;100488.44;5053086;28;20183;-71
2023/12/09 09:10:16;;;;;;;5.23;2.70;;;;;;;7.54;84.68;100480.03;5052581;28;20206;-70
2023/12/09 09:12:43;;;;;;;3.27;2.97;;;;;;;7.62;84.15;100479.34;5052500;28;20257;-70
2023/12/09 09:15:11;;;;;;;2.23;2.13;;;;;;;7.67;83.95;100480.63;5052972;28;20187;-70
2023/12/09 09:17:39;;;;;;;5.83;2.93;;;;;;;7.68;83.72;100478.81;5052366;28;20195;-71
2023/12/09 09:20:06;;;;;;;4.17;2.60;;;;;;;7.66;83.68;100475.41;5052715;28;20597;-71
2023/12/09 09:22:33;;;;;;;2.80;2.60;;;;;;;7.73;83.50;100482.69;5052636;28;20175;-71
2023/12/09 09:25:00;;;;;;;9.30;3.30;;;;;;;7.65;83.92;100471.91;5053013;28;20187;-70
2023/12/09 09:27:26;;;;;;;6.63;3.30;;;;;;;7.68;84.13;100463.66;5052748;28;20262;-70
2023/12/09 09:29:53;;;;;;;3.80;3.50;;;;;;;7.76;83.86;100447.00;5052241;28;20302;-71
2023/12/09 09:32:20;;;;;;;11.43;4.23;;;;;;;7.84;83.57;100430.34;5055855;28;20226;-71
2023/12/09 09:34:47;;;;;;;5.57;3.53;;;;;;;7.91;83.40;100434.09;5055977;28;20285;-71
2023/12/09 09:37:14;;;;;;;2.87;2.67;;;;;;;7.99;83.25;100424.41;5055890;28;20180;-71
2023/12/09 09:39:41;;;;;;;6.57;3.70;;;;;;;8.00;82.81;100428.78;5055934;28;20220;-71
2023/12/09 09:42:18;;;;;;;3.33;3.00;;;;;;;8.02;82.73;100421.47;5056355;28;20587;-71
2023/12/09 09:45:10;;;;;;;5.30;3.30;;;;;;;8.09;82.40;100422.59;5056085;28;20517;-71
2023/12/09 09:47:36;;;;;;;4.93;2.63;;;;;;;8.09;81.95;100419.94;5056063;28;20202;-71
2023/12/09 09:50:06;;;;;;;8.33;3.50;;;;;;;8.11;82.00;100399.31;5055555;28;20206;-71
2023/12/09 09:52:35;;;;;;;3.93;3.60;;;;;;;8.17;82.00;100390.75;5055835;28;20214;-70
2023/12/09 09:55:06;;;;;;;9.10;3.37;;;;;;;8.16;81.81;100385.56;5055579;28;20199;-70
2023/12/09 09:57:35;;;;;;;4.77;4.37;;;;;;;8.17;81.42;100388.09;5055771;28;20506;-71
2023/12/09 10:00:12;;;;;;;3.00;2.67;;;;;;;8.24;80.90;100365.22;5055430;28;20203;-71
2023/12/09 10:02:47;;;;;;;5.27;3.57;;;;;;;8.26;81.27;100363.25;5055788;28;20182;-71
2023/12/09 10:05:20;;;;;;;4.30;4.00;;;;;;;8.33;80.80;100346.72;5055373;28;20186;-71
2023/12/09 10:07:46;;;;;;;5.03;3.70;;;;;;;8.28;81.00;100344.47;5055957;28;20175;-70
2023/12/09 10:10:16;;;;;;;7.50;3.07;;;;;;;8.24;80.93;100333.25;5055211;28;20211;-71
2023/12/09 10:12:43;;;;;;;5.93;3.33;;;;;;;8.22;81.14;100335.25;5055185;28;20211;-71
2023/12/09 10:15:10;;;;;;;4.47;3.10;;;;;;;8.26;80.82;100318.00;5055213;28;20725;-71
2023/12/09 10:17:37;;;;;;;7.50;3.10;;;;;;;8.21;81.30;100328.25;5055046;28;20195;-71
2023/12/09 10:20:06;;;;;;;6.27;3.43;;;;;;;8.21;81.54;100314.94;5055050;28;20758;-71
2023/12/09 10:22:34;;;;;;;6.10;3.17;;;;;;;8.20;81.25;100307.91;5055341;28;20240;-71
2023/12/09 10:25:00;;;;;;;7.10;2.80;;;;;;;8.22;81.35;100302.47;5055018;28;20187;-71
2023/12/09 10:27:27;;;;;;;4.10;3.00;;;;;;;8.21;80.95;100304.28;5055286;28;20262;-71
2023/12/09 10:29:58;;;;;;;7.93;3.03;;;;;;;8.20;81.23;100299.94;5055440;28;20249;-71
2023/12/09 10:32:25;;;;;;;4.10;3.40;;;;;;;8.20;81.17;100299.94;5055090;28;20215;-71
2023/12/09 10:34:53;;;;;;;4.33;2.90;;;;;;;8.22;80.85;100276.66;5054763;28;20203;-73
2023/12/09 10:37:20;;;;;;;5.57;3.10;;;;;;;8.24;81.13;100277.34;5055668;28;20219;-74
2023/12/09 10:39:49;;;;;;;4.93;4.10;;;;;;;8.33;80.80;100269.47;5054754;28;20210;-74
2023/12/09 10:42:15;;;;;;;3.30;3.17;;;;;;;8.34;80.66;100274.66;5054646;28;20187;-74
2023/12/09 10:44:42;;;;;;;3.60;3.40;;;;;;;8.37;80.48;100265.53;5054989;28;20180;-74
2023/12/09 10:47:09;;;;;;;3.77;2.70;;;;;;;8.38;80.40;100249.41;5054644;28;20187;-74
2023/12/09 10:49:36;;;;;;;4.47;2.73;;;;;;;8.43;79.97;100241.81;5054479;28;20585;-75
2023/12/09 10:52:04;;;;;;;8.67;3.73;;;;;;;8.44;79.99;100232.00;5054374;28;20199;-74
2023/12/09 10:54:30;;;;;;;8.00;3.20;;;;;;;8.51;79.73;100233.91;5054941;28;20647;-74
2023/12/09 10:56:58;;;;;;;6.63;3.97;;;;;;;8.48;80.05;100212.06;5054416;28;20183;-74
2023/12/09 10:59:27;;;;;;;3.50;2.63;;;;;;;8.54;80.12;100200.78;5054309;28;20294;-74
2023/12/09 11:01:54;;;;;;;7.87;3.60;;;;;;;8.48;80.03;100196.94;5054576;28;20258;-74
2023/12/09 11:04:21;;;;;;;11.90;2.50;;;;;;;8.53;79.98;100183.16;5054368;28;20558;-74
2023/12/09 11:06:50;;;;;;;3.53;3.03;;;;;;;8.56;79.83;100185.50;5054530;28;20551;-74
2023/12/09 11:09:18;;;;;;;6.83;3.80;;;;;;;8.62;79.39;100177.72;5054040;28;20210;-74
2023/12/09 11:11:46;;;;;;;4.63;2.93;;;;;;;8.63;78.91;100171.41;5054091;28;20294;-74
2023/12/09 11:14:13;;;;;;;9.50;3.70;;;;;;;8.61;78.94;100164.59;5055022;28;20554;-74
2023/12/09 11:16:46;;;;;;;11.60;3.37;;;;;;;8.62;79.20;100166.22;5054004;28;20195;-74
2023/12/09 11:19:15;;;;;;;5.97;2.97;;;;;;;8.66;78.84;100164.94;5054132;28;20211;-74
2023/12/09 11:21:46;;;;;;;9.93;4.53;;;;;;;8.72;78.79;100156.34;5054125;28;20191;-74
2023/12/09 11:24:18;;;;;;;4.27;3.67;;;;;;;8.70;79.32;100129.00;5054331;28;20219;-74
2023/12/09 11:26:48;;;;;;;7.90;3.97;;;;;;;8.77;78.69;100116.75;5054559;28;20229;-74
2023/12/09 11:29:19;;;;;;;5.87;3.47;;;;;;;8.79;78.32;100101.41;5054235;28;20579;-74
2023/12/09 11:31:48;;;;;;;5.20;3.43;;;;;;;8.76;78.72;100098.22;5054397;28;20659;-74